Details From VNKT - Kathmandu Tribhuvan Intl
To WIHH - Jakarta Halim Perdanakusuma Intl
Flight Number -
Tags Generated
Created
Modified
Stats Distance 2,392 nm / 4,429 km
Max Altitude 0 ft / 0 m
Waypoints 5
Social Downloads 1
Likes 0
Share VATSIM

Download

Looking for another format? Having issues loading an existing format? Contact us
Advertisement - Login to hide

Notes

Generated

Route

VNKT LK CE076 DKI18 WIHH

ID Type Via Altitude Latitude Longitude Leg Dist Tot Dist Heading (true) Name
O VNKT APT - 0 ft / 0 m 27.68381˚ 85.35342˚ - 0 nm - -
LK NDB - 0 ft / 0 m 6.32056˚ 99.72778˚ 1522 nm 1522 nm 145° / 149° LANGKAWI NDB
CE076 FIX - 0 ft / 0 m 3.25183˚ 101.47672˚ 211 nm 1734 nm 150° / 150° -
DKI18 FIX - 0 ft / 0 m -6.07081˚ 106.76275˚ 643 nm 2377 nm 150° / 150° -
O WIHH APT - 0 ft / 0 m -6.27223˚ 106.87877˚ 13 nm 2391 nm 150° / 150° -

Altitude Profile

Advertisement - Login to hide

Weather


0- 5 10 15 20 25 30 35+ Temperature / ° C

Clouds and Precipitation
Forecast for 2017-12-15 06:00 UTC. Updated 2 hours ago

Ground ~20,000 ft ~40,000 ft Winds

VNKT

Details ICAO VNKT (KTM)
Name Kathmandu Tribhuvan Intl
Region Nepal
Timezone Asia/Kathmandu (UTC+5.8)
Stats Elevation 4,390 ft / 1,338 m (AMSL)
Location 27.696583° 85.359100°
Runways 1
Magnetic Variation 0.492° E

METAR

VNKT 150220Z 09003KT 3500 BR FEW010 06/03 Q1022 NOSIG

Decode

TAF

TAF VNKT 142300Z 1500/1524 VRB02KT 6000 FEW015 BECMG 1500/1502 3000 BR FEW010 PROB30 1501/1503 2000 BR BECMG 1504/1505 13005KT 5000 HZ FEW015 BECMG 1507/1508 28008KT 8000 FEW020 BECMG 1514/1515 VRB02KT 6000 FEW015

Decode

Departure Runways

ID Width Length Bearing (true) Bearing (mag) Surface Threshold Offset Overrun Length
02 148 ft / 45 m 10,017 ft / 3,053 m 21.50° 21.01° Asphalt 0 ft / 0 m 0 ft / 0 m
20 148 ft / 45 m 10,017 ft / 3,053 m 201.51° 201.02° Asphalt 400 ft / 122 m 0 ft / 0 m

WIHH

Details ICAO WIHH (HLP)
Name Jakarta Halim Perdanakusuma Intl
Region Indonesia
Timezone Asia/Jakarta (UTC+7.0)
Stats Elevation 84 ft / 26 m (AMSL)
Location -6.266608° 106.891117°
Runways 1
Magnetic Variation 0.650° E

METAR

WIHH 150230Z 27005KT 9000 FEW020 30/23 Q1011 NOSIG

Decode

TAF

Not found

Destination Runways

ID Width Length Bearing (true) Bearing (mag) Surface Threshold Offset Overrun Length
06 148 ft / 45 m 9,855 ft / 3,004 m 65.38° 64.73° Asphalt 0 ft / 0 m 0 ft / 0 m
24 148 ft / 45 m 9,855 ft / 3,004 m 245.38° 244.73° Asphalt 650 ft / 198 m 0 ft / 0 m

Approach Navaids

Runway Type Ident Frequency Range Bearing (true) Bearing (mag) Slope Elevation
24 Localiser IHAL 111.70 MHz 18 nm / 33 km 245.32° 244.67° - 87 ft / 27 m (AMSL)
24 Glidescope IHAL 111.70 MHz 10 nm / 19 km 245.38° 244.73° 3.00° 90 ft / 27 m (AMSL)
24 DME IHAL 111.70 MHz 18 nm / 33 km - - - 88 ft / 27 m (AMSL)

Popular Alternatives